createdAt,value
2018-01-15T00:02:18.551Z,17.62
2018-01-15T00:04:46.026Z,16.83
2018-01-15T00:07:13.496Z,16.08
2018-01-15T00:09:41.135Z,15.50
2018-01-15T00:12:08.604Z,17.27
2018-01-15T00:14:36.078Z,17.15
2018-01-15T00:17:03.553Z,16.40
2018-01-15T00:19:31.018Z,17.02
2018-01-15T00:21:59.269Z,16.25
2018-01-15T00:24:26.739Z,19.20
2018-01-15T00:26:54.204Z,18.00
2018-01-15T00:29:22.448Z,19.02
2018-01-15T00:31:49.916Z,17.27
2018-01-15T00:34:17.399Z,18.77
2018-01-15T00:36:45.635Z,19.05
2018-01-15T00:39:13.121Z,20.20
2018-01-15T00:41:40.586Z,19.98
2018-01-15T00:44:08.882Z,19.30
2018-01-15T00:46:37.113Z,21.30
2018-01-15T00:49:04.582Z,19.65
2018-01-15T00:51:32.054Z,21.42
2018-01-15T00:54:00.294Z,21.20
2018-01-15T00:56:27.771Z,20.15
2018-01-15T00:58:55.242Z,20.05
2018-01-15T01:01:23.487Z,20.10
2018-01-15T01:03:50.960Z,20.12
2018-01-15T01:06:18.426Z,20.23
2018-01-15T01:08:45.895Z,19.60
2018-01-15T01:11:14.154Z,22.60
2018-01-15T01:13:41.618Z,21.35
2018-01-15T01:16:09.178Z,20.88
2018-01-15T01:18:36.651Z,21.08
2018-01-15T01:21:04.894Z,22.08
2018-01-15T01:23:32.350Z,20.92
2018-01-15T01:25:59.827Z,21.23
2018-01-15T01:28:27.290Z,22.25
2018-01-15T01:30:55.526Z,20.90
2018-01-15T01:33:22.992Z,20.85
2018-01-15T01:35:50.468Z,22.17
2018-01-15T01:38:17.932Z,21.62
2018-01-15T01:40:45.425Z,21.92
2018-01-15T01:43:12.898Z,21.67
2018-01-15T01:45:40.395Z,21.58
2018-01-15T01:48:07.863Z,22.83
2018-01-15T01:50:35.335Z,22.85
2018-01-15T01:53:03.614Z,22.27
2018-01-15T01:55:31.963Z,23.12
2018-01-15T01:57:59.437Z,24.12
2018-01-15T02:00:27.674Z,23.35
2018-01-15T02:02:55.210Z,22.33
2018-01-15T02:05:22.682Z,23.58
2018-01-15T02:07:50.152Z,22.98
2018-01-15T02:10:17.619Z,21.23
2018-01-15T02:12:46.677Z,22.75
2018-01-15T02:15:14.155Z,21.85
2018-01-15T02:17:41.622Z,22.60
2018-01-15T02:20:09.211Z,23.10
2018-01-15T02:22:36.679Z,21.73
2018-01-15T02:25:04.919Z,21.42
2018-01-15T02:27:32.387Z,22.02
2018-01-15T02:29:59.863Z,20.12
2018-01-15T02:32:27.359Z,21.58
2018-01-15T02:34:54.823Z,22.98
2018-01-15T02:37:22.319Z,22.65
2018-01-15T02:39:49.788Z,19.83
2018-01-15T02:42:18.026Z,20.60
2018-01-15T02:44:45.491Z,18.95
2018-01-15T02:47:12.962Z,19.55
2018-01-15T02:49:40.430Z,18.50
2018-01-15T02:52:07.901Z,19.15
2018-01-15T02:54:35.363Z,18.08
2018-01-15T02:57:03.608Z,17.98
2018-01-15T02:59:31.079Z,16.80
2018-01-15T03:01:58.559Z,18.87
2018-01-15T03:04:26.798Z,18.30
2018-01-15T03:06:54.283Z,17.58
2018-01-15T03:09:21.783Z,17.27
2018-01-15T03:11:49.259Z,18.25
2018-01-15T03:14:16.726Z,17.15
2018-01-15T03:16:44.268Z,16.83
2018-01-15T03:19:12.451Z,18.10
2018-01-15T03:21:39.931Z,17.52
2018-01-15T03:24:07.491Z,17.37
2018-01-15T03:26:34.962Z,16.65
2018-01-15T03:29:03.192Z,17.92
2018-01-15T03:31:30.672Z,16.95
2018-01-15T03:33:58.142Z,15.07
2018-01-15T03:36:25.619Z,15.45
2018-01-15T03:38:53.855Z,16.55
2018-01-15T03:41:21.334Z,16.02
2018-01-15T03:43:48.798Z,16.45
2018-01-15T03:46:16.278Z,17.17
2018-01-15T03:48:43.756Z,16.62
2018-01-15T03:51:11.231Z,16.15
2018-01-15T03:53:38.701Z,16.87
2018-01-15T03:56:06.214Z,16.25
2018-01-15T03:58:33.662Z,17.35
2018-01-15T04:01:01.916Z,17.23
2018-01-15T04:03:29.382Z,17.85
2018-01-15T04:05:56.853Z,18.10
2018-01-15T04:08:25.081Z,16.65
2018-01-15T04:10:52.563Z,18.65
2018-01-15T04:13:20.032Z,15.98
2018-01-15T04:15:48.277Z,17.20
2018-01-15T04:18:15.755Z,17.12
2018-01-15T04:20:43.315Z,17.52
2018-01-15T04:23:10.827Z,17.83
2018-01-15T04:25:38.294Z,18.73
2018-01-15T04:28:05.790Z,17.48
2018-01-15T04:30:33.275Z,17.80
2018-01-15T04:33:00.735Z,16.58
2018-01-15T04:35:28.232Z,16.92
2018-01-15T04:37:55.707Z,18.10
2018-01-15T04:40:23.225Z,18.92
2018-01-15T04:42:50.725Z,18.77
2018-01-15T04:45:18.191Z,20.08
2018-01-15T04:47:45.671Z,18.80
2018-01-15T04:50:13.935Z,18.10
2018-01-15T04:52:41.414Z,18.37
2018-01-15T04:55:09.647Z,18.75
2018-01-15T04:57:37.128Z,18.90
2018-01-15T05:00:04.596Z,20.37
2018-01-15T05:02:32.826Z,19.42
2018-01-15T05:05:00.298Z,20.02
2018-01-15T05:07:27.783Z,19.95
2018-01-15T05:09:56.168Z,21.92
2018-01-15T05:12:24.445Z,20.20
2018-01-15T05:14:52.695Z,18.85
2018-01-15T05:17:20.159Z,18.62
2018-01-15T05:19:47.630Z,18.65
2018-01-15T05:22:15.866Z,20.05
2018-01-15T05:24:43.332Z,18.95
2018-01-15T05:27:10.806Z,17.20
2018-01-15T05:29:38.278Z,17.67
2018-01-15T05:32:06.510Z,20.60
2018-01-15T05:34:33.983Z,19.60
2018-01-15T05:37:01.459Z,19.75
2018-01-15T05:39:28.950Z,19.40
2018-01-15T05:41:56.417Z,20.80
2018-01-15T05:44:23.882Z,19.45
2018-01-15T05:46:51.367Z,19.90
2018-01-15T05:49:18.835Z,20.75
2018-01-15T05:51:46.317Z,19.40
2018-01-15T05:54:14.540Z,19.60
2018-01-15T05:56:42.015Z,20.55
2018-01-15T05:59:09.475Z,19.70
2018-01-15T06:01:36.957Z,18.62
2018-01-15T06:04:04.516Z,18.60
2018-01-15T06:06:32.000Z,19.92
2018-01-15T06:08:59.471Z,18.50
2018-01-15T06:11:26.951Z,18.45
2018-01-15T06:13:54.416Z,17.67
2018-01-15T06:16:21.899Z,18.45
2018-01-15T06:18:49.362Z,17.58
2018-01-15T06:21:17.599Z,18.02
2018-01-15T06:23:45.079Z,18.33
2018-01-15T06:26:12.548Z,17.83
2018-01-15T06:28:40.015Z,17.90
2018-01-15T06:31:08.242Z,17.75
2018-01-15T06:33:44.482Z,19.02
2018-01-15T06:36:11.943Z,18.23
2018-01-15T06:38:39.418Z,18.70
2018-01-15T06:41:06.895Z,17.95
2018-01-15T06:43:34.387Z,19.33
2018-01-15T06:46:02.626Z,19.30
2018-01-15T06:48:30.199Z,18.48
2018-01-15T06:50:57.665Z,17.75
2018-01-15T06:53:25.162Z,17.73
2018-01-15T06:55:52.624Z,19.62
2018-01-15T06:58:20.102Z,18.10
2018-01-15T07:00:47.575Z,20.42
2018-01-15T07:03:15.042Z,19.27
2018-01-15T07:05:42.515Z,19.42
2018-01-15T07:08:09.987Z,18.60
2018-01-15T07:10:38.219Z,18.52
2018-01-15T07:13:05.691Z,18.17
2018-01-15T07:15:33.151Z,19.10
2018-01-15T07:18:00.752Z,18.48
2018-01-15T07:20:28.276Z,18.50
2018-01-15T07:22:55.751Z,17.75
2018-01-15T07:25:23.984Z,19.23
2018-01-15T07:27:51.446Z,17.48
2018-01-15T07:30:18.959Z,18.98
2018-01-15T07:32:47.191Z,17.40
2018-01-15T07:35:14.659Z,17.17
2018-01-15T07:37:42.126Z,17.75
2018-01-15T07:40:10.390Z,17.00
2018-01-15T07:42:37.867Z,18.23
2018-01-15T07:45:06.099Z,15.82
2018-01-15T07:47:33.566Z,16.65
2018-01-15T07:50:01.043Z,17.05
2018-01-15T07:52:28.531Z,16.37
2018-01-15T07:54:56.760Z,18.15
2018-01-15T07:57:24.239Z,18.80
2018-01-15T07:59:53.307Z,16.98
2018-01-15T08:02:20.782Z,17.05
2018-01-15T08:04:48.250Z,17.65
2018-01-15T08:07:15.719Z,18.37
2018-01-15T08:09:43.950Z,16.48
2018-01-15T08:12:11.427Z,17.80
2018-01-15T08:14:38.895Z,17.58
2018-01-15T08:17:06.364Z,16.02
2018-01-15T08:19:34.607Z,16.05
2018-01-15T08:22:02.107Z,17.50
2018-01-15T08:24:29.555Z,17.05
2018-01-15T08:26:57.815Z,16.05
2018-01-15T08:29:25.287Z,17.80
2018-01-15T08:31:53.517Z,17.60
2018-01-15T08:34:20.984Z,18.92
2018-01-15T08:36:48.434Z,17.60
2018-01-15T08:39:15.905Z,17.85
2018-01-15T08:41:43.367Z,16.70
2018-01-15T08:44:10.839Z,17.23
2018-01-15T08:46:38.305Z,17.58
2018-01-15T08:49:06.687Z,15.60
2018-01-15T08:51:34.148Z,16.95
2018-01-15T08:54:02.375Z,17.83
2018-01-15T08:56:29.840Z,17.30
2018-01-15T08:58:57.315Z,15.90
2018-01-15T09:01:24.780Z,17.02
2018-01-15T09:03:52.247Z,17.55
2018-01-15T09:06:20.492Z,18.85
2018-01-15T09:08:47.959Z,17.92
2018-01-15T09:11:15.427Z,17.52
2018-01-15T09:13:42.911Z,16.05
2018-01-15T09:16:11.167Z,16.95
2018-01-15T09:18:38.639Z,19.05
2018-01-15T09:21:06.884Z,17.48
2018-01-15T09:23:34.355Z,17.35
2018-01-15T09:26:01.811Z,17.73
2018-01-15T09:28:29.363Z,17.60
2018-01-15T09:30:56.830Z,16.42
2018-01-15T09:33:24.308Z,16.67
2018-01-15T09:35:52.564Z,17.58
2018-01-15T09:38:20.035Z,16.10
2018-01-15T09:40:48.297Z,17.37
2018-01-15T09:43:15.800Z,18.17
2018-01-15T09:45:44.002Z,16.50
2018-01-15T09:48:11.466Z,17.25
2018-01-15T09:50:38.932Z,16.70
2018-01-15T09:53:06.407Z,18.15
2018-01-15T09:55:34.645Z,17.58
2018-01-15T09:58:02.119Z,16.62
2018-01-15T10:00:29.582Z,15.90
2018-01-15T10:02:57.159Z,17.87
2018-01-15T10:05:25.399Z,16.45
2018-01-15T10:07:52.887Z,18.60
2018-01-15T10:10:20.352Z,17.08
2018-01-15T10:12:48.578Z,17.50
2018-01-15T10:15:16.068Z,15.77
2018-01-15T10:17:43.536Z,16.27
2018-01-15T10:20:11.005Z,15.60
2018-01-15T10:22:39.235Z,16.10
2018-01-15T10:25:06.711Z,18.35
2018-01-15T10:27:34.183Z,16.50
2018-01-15T10:30:01.651Z,17.80
2018-01-15T10:32:29.881Z,15.30
2018-01-15T10:34:57.396Z,16.60
2018-01-15T10:37:25.622Z,16.00
2018-01-15T10:39:53.099Z,16.55
2018-01-15T10:42:20.562Z,17.55
2018-01-15T10:44:48.023Z,17.33
2018-01-15T10:47:16.256Z,15.60
2018-01-15T10:49:43.733Z,16.83
2018-01-15T10:52:11.195Z,15.98
2018-01-15T10:54:38.683Z,16.00
2018-01-15T10:57:06.914Z,15.57
2018-01-15T10:59:34.378Z,15.90
2018-01-15T11:02:01.842Z,15.00
2018-01-15T11:04:29.319Z,14.43
2018-01-15T11:06:56.783Z,13.15
2018-01-15T11:09:25.032Z,14.35
2018-01-15T11:11:52.522Z,12.82
2018-01-15T11:14:20.758Z,12.82
2018-01-15T11:16:48.233Z,11.40
2018-01-15T11:19:15.715Z,10.48
2018-01-15T11:21:43.931Z,9.55
2018-01-15T11:24:11.406Z,10.52
2018-01-15T11:26:38.883Z,12.00
2018-01-15T11:29:06.343Z,12.15
2018-01-15T11:31:33.799Z,10.10
2018-01-15T11:34:01.272Z,11.70
2018-01-15T11:36:29.511Z,10.00
2018-01-15T11:38:56.986Z,11.60
2018-01-15T11:41:24.466Z,11.85
2018-01-15T11:43:52.720Z,11.65
2018-01-15T11:46:20.182Z,12.73
2018-01-15T11:48:47.655Z,10.40
2018-01-15T11:51:15.898Z,10.15
2018-01-15T11:53:43.362Z,11.50
2018-01-15T11:56:10.831Z,10.48
2018-01-15T11:58:38.295Z,9.95
2018-01-15T12:01:06.543Z,11.73
2018-01-15T12:03:34.048Z,10.35
2018-01-15T12:06:01.531Z,12.10
2018-01-15T12:08:28.994Z,11.63
2018-01-15T12:10:56.472Z,12.23
2018-01-15T12:13:23.962Z,11.35
2018-01-15T12:15:52.211Z,12.07
2018-01-15T12:18:19.721Z,12.63
2018-01-15T12:20:47.932Z,11.65
2018-01-15T12:23:15.395Z,11.60
2018-01-15T12:25:42.870Z,11.00
2018-01-15T12:28:10.359Z,11.80
2018-01-15T12:30:38.615Z,11.25
2018-01-15T12:33:06.082Z,10.65
2018-01-15T12:35:34.347Z,11.95
2018-01-15T12:38:01.799Z,12.57
2018-01-15T12:40:29.267Z,11.32
2018-01-15T12:42:57.490Z,12.25
2018-01-15T12:45:24.970Z,12.55
2018-01-15T12:47:52.435Z,12.07
2018-01-15T12:50:19.895Z,13.32
2018-01-15T12:52:47.367Z,11.95
2018-01-15T12:55:14.846Z,12.40
2018-01-15T12:57:42.321Z,12.52
2018-01-15T13:00:09.804Z,12.50
2018-01-15T13:02:37.279Z,12.23
2018-01-15T13:05:04.745Z,11.70
2018-01-15T13:07:44.191Z,11.48
2018-01-15T13:10:11.649Z,11.35
2018-01-15T13:12:39.119Z,11.75
2018-01-15T13:15:07.358Z,10.25
2018-01-15T13:17:34.831Z,11.55
2018-01-15T13:20:02.298Z,10.68
2018-01-15T13:22:29.771Z,11.45
2018-01-15T13:24:58.009Z,10.50
2018-01-15T13:27:25.483Z,10.95
2018-01-15T13:29:52.962Z,10.32
2018-01-15T13:32:21.215Z,11.35
2018-01-15T13:34:48.674Z,11.38
2018-01-15T13:37:16.155Z,11.02
2018-01-15T13:39:44.410Z,10.68
2018-01-15T13:42:11.903Z,11.40
2018-01-15T13:44:39.591Z,10.55
2018-01-15T13:47:07.068Z,10.85
2018-01-15T13:49:34.608Z,11.10
2018-01-15T13:52:02.108Z,10.77
2018-01-15T13:54:29.578Z,10.82
2018-01-15T13:56:57.830Z,10.43
2018-01-15T13:59:25.287Z,9.90
2018-01-15T14:01:52.750Z,9.93
2018-01-15T14:04:21.042Z,10.25
2018-01-15T14:06:49.282Z,9.90
2018-01-15T14:09:16.751Z,10.02
2018-01-15T14:11:44.223Z,10.88
2018-01-15T14:14:11.704Z,10.35
2018-01-15T14:16:40.149Z,10.90
2018-01-15T14:19:07.724Z,11.05
2018-01-15T14:21:35.186Z,10.50
2018-01-15T14:24:03.437Z,10.68
2018-01-15T14:26:30.908Z,10.88
2018-01-15T14:28:58.382Z,10.23
2018-01-15T14:31:25.838Z,9.98
2018-01-15T14:33:54.109Z,11.00
2018-01-15T14:36:21.559Z,11.23
2018-01-15T14:38:49.039Z,12.02
2018-01-15T14:41:17.271Z,11.50
2018-01-15T14:43:44.748Z,11.43
2018-01-15T14:46:12.248Z,11.10
2018-01-15T14:48:39.722Z,11.75
2018-01-15T14:51:07.206Z,12.05
2018-01-15T14:53:34.682Z,11.80
2018-01-15T14:56:02.177Z,11.43
2018-01-15T14:58:29.658Z,11.73
2018-01-15T15:00:57.120Z,11.23
2018-01-15T15:03:24.591Z,9.27
2018-01-15T15:08:55.454Z,10.35
2018-01-15T15:11:22.918Z,9.95
2018-01-15T15:16:54.594Z,10.30
2018-01-15T15:19:22.870Z,9.70
2018-01-15T15:21:51.102Z,9.95
2018-01-15T15:27:22.027Z,8.80
2018-01-15T15:29:49.513Z,9.88
2018-01-15T15:32:16.975Z,8.27
2018-01-15T15:34:45.212Z,8.55
2018-01-15T15:37:23.049Z,8.80
2018-01-15T15:39:50.581Z,8.20
2018-01-15T15:42:18.069Z,7.90
2018-01-15T15:47:49.619Z,9.57
2018-01-15T15:50:17.088Z,8.93
2018-01-15T15:52:44.563Z,8.05
2018-01-15T15:55:12.030Z,9.02
2018-01-15T15:57:40.254Z,8.80
2018-01-15T16:00:07.724Z,9.07
2018-01-15T16:05:38.373Z,9.05
2018-01-15T16:08:05.854Z,9.82
2018-01-15T16:10:33.331Z,9.32
2018-01-15T16:13:01.585Z,9.35
2018-01-15T16:15:29.127Z,9.50
2018-01-15T16:17:56.623Z,9.40
2018-01-15T16:20:24.119Z,9.40
2018-01-15T16:22:58.542Z,9.45
2018-01-15T16:25:26.019Z,8.60
2018-01-15T16:27:53.513Z,9.73
2018-01-15T16:30:21.016Z,9.45
2018-01-15T16:32:48.532Z,9.98
2018-01-15T16:35:16.007Z,8.30
2018-01-15T16:37:44.322Z,8.35
2018-01-15T16:43:14.344Z,10.25
2018-01-15T16:45:41.808Z,9.95
2018-01-15T16:48:09.481Z,9.77
2018-01-15T16:50:36.997Z,9.15
2018-01-15T16:53:04.626Z,9.57
2018-01-15T16:55:32.102Z,8.75
2018-01-15T16:57:59.649Z,8.65
2018-01-15T17:00:27.150Z,9.27
2018-01-15T17:02:55.568Z,9.35
2018-01-15T17:05:23.206Z,9.13
2018-01-15T17:10:53.542Z,9.85
2018-01-15T17:13:21.088Z,10.70
2018-01-15T17:15:48.593Z,9.00
2018-01-15T17:18:37.724Z,9.30
2018-01-15T17:21:05.204Z,10.32
2018-01-15T17:23:32.688Z,9.30
2018-01-15T17:26:00.158Z,10.90
2018-01-15T17:28:27.614Z,9.77
2018-01-15T17:30:55.090Z,8.80
2018-01-15T17:33:22.548Z,9.38
2018-01-15T17:35:50.024Z,8.70
2018-01-15T17:38:18.266Z,10.57
2018-01-15T17:40:46.151Z,10.07
2018-01-15T17:43:13.607Z,10.38
2018-01-15T17:45:46.109Z,10.90
2018-01-15T17:48:13.590Z,8.82
2018-01-15T17:50:41.834Z,10.15
2018-01-15T17:53:09.377Z,9.70
2018-01-15T17:55:36.850Z,9.50
2018-01-15T17:58:04.316Z,9.73
2018-01-15T18:00:31.817Z,9.10
2018-01-15T18:02:59.279Z,10.02
2018-01-15T18:05:26.738Z,9.15
2018-01-15T18:07:54.212Z,9.07
2018-01-15T18:10:21.675Z,10.88
2018-01-15T18:12:49.291Z,9.50
2018-01-15T18:15:17.509Z,10.48
2018-01-15T18:17:44.978Z,10.13
2018-01-15T18:20:12.447Z,9.57
2018-01-15T18:22:39.923Z,10.13
2018-01-15T18:25:08.164Z,10.07
2018-01-15T18:30:39.395Z,9.45
2018-01-15T18:33:06.864Z,10.73
2018-01-15T18:35:34.345Z,10.30
2018-01-15T18:38:02.601Z,10.32
2018-01-15T18:40:30.074Z,11.05
2018-01-15T18:42:58.323Z,10.40
2018-01-15T18:45:25.785Z,8.90
2018-01-15T18:47:53.258Z,10.50
2018-01-15T18:50:21.500Z,11.05
2018-01-15T18:52:48.974Z,10.93
2018-01-15T18:55:16.439Z,11.38
2018-01-15T19:00:46.986Z,11.23
2018-01-15T19:03:14.486Z,11.57
2018-01-15T19:05:41.997Z,10.20
2018-01-15T19:08:09.479Z,11.40
2018-01-15T19:13:30.110Z,11.70
2018-01-15T19:15:57.609Z,10.70
2018-01-15T19:18:25.212Z,11.00
2018-01-15T19:20:52.734Z,10.35
2018-01-15T19:23:20.234Z,10.85
2018-01-15T19:25:47.814Z,10.15
2018-01-15T19:28:15.310Z,9.60
2018-01-15T19:30:43.358Z,10.43
2018-01-15T19:33:10.895Z,9.95
2018-01-15T19:38:37.571Z,10.77
2018-01-15T19:41:05.138Z,8.63
2018-01-15T19:46:41.489Z,9.98
2018-01-15T19:49:14.667Z,10.68
2018-01-15T19:51:47.804Z,9.25
2018-01-15T19:54:21.001Z,8.02
2018-01-15T19:56:54.164Z,9.45
2018-01-15T19:59:27.349Z,9.23
2018-01-15T20:02:00.562Z,9.68
2018-01-15T20:04:33.685Z,8.57
2018-01-15T20:07:07.546Z,8.80
2018-01-15T20:09:40.876Z,8.50
2018-01-15T20:12:08.370Z,8.50
2018-01-15T20:14:35.856Z,9.52
2018-01-15T20:17:03.341Z,8.35
2018-01-15T20:19:31.655Z,8.88
2018-01-15T20:21:59.288Z,8.90
2018-01-15T20:24:26.791Z,10.10
2018-01-15T20:26:54.279Z,9.50
2018-01-15T20:29:21.872Z,10.13
2018-01-15T20:31:50.175Z,9.80
2018-01-15T20:34:17.814Z,11.10
2018-01-15T20:36:45.371Z,10.40
2018-01-15T20:39:12.907Z,10.20
2018-01-15T20:41:40.427Z,10.77
2018-01-15T20:44:07.940Z,9.85
2018-01-15T20:46:35.401Z,10.50
2018-01-15T20:49:03.691Z,10.80
2018-01-15T20:51:31.974Z,11.10
2018-01-15T20:54:00.254Z,11.82
2018-01-15T20:56:27.722Z,11.45
2018-01-15T20:58:55.197Z,11.82
2018-01-15T21:01:22.671Z,10.80
2018-01-15T21:03:50.194Z,10.80
2018-01-15T21:06:17.704Z,10.30
2018-01-15T21:08:45.179Z,10.40
2018-01-15T21:11:12.647Z,11.30
2018-01-15T21:13:40.963Z,9.45
2018-01-15T21:16:08.432Z,10.43
2018-01-15T21:18:35.930Z,10.60
2018-01-15T21:21:03.410Z,10.02
2018-01-15T21:23:30.939Z,9.48
2018-01-15T21:25:58.466Z,9.88
2018-01-15T21:28:25.987Z,9.82
2018-01-15T21:30:53.470Z,11.15
2018-01-15T21:33:20.976Z,10.50
2018-01-15T21:35:48.481Z,9.77
2018-01-15T21:38:15.939Z,11.52
2018-01-15T21:40:43.448Z,11.25
2018-01-15T21:43:10.907Z,9.80
2018-01-15T21:45:38.430Z,9.75
2018-01-15T21:48:05.934Z,10.10
2018-01-15T21:50:34.208Z,9.38
2018-01-15T21:53:01.678Z,9.55
2018-01-15T21:55:29.988Z,8.80
2018-01-15T21:57:57.494Z,9.23
2018-01-15T22:00:25.105Z,8.40
2018-01-15T22:02:52.623Z,8.85
2018-01-15T22:05:20.899Z,9.20
2018-01-15T22:07:49.127Z,9.40
2018-01-15T22:10:16.599Z,9.10
2018-01-15T22:12:44.081Z,8.30
2018-01-15T22:15:11.594Z,9.30
2018-01-15T22:17:39.047Z,8.13
2018-01-15T22:20:06.585Z,7.72
2018-01-15T22:22:34.804Z,6.60
2018-01-15T22:25:02.264Z,7.78
2018-01-15T22:27:29.731Z,7.18
2018-01-15T22:29:57.298Z,6.85
2018-01-15T22:32:24.775Z,8.15
2018-01-15T22:34:53.068Z,7.32
2018-01-15T22:37:21.304Z,7.47
2018-01-15T22:39:48.762Z,6.57
2018-01-15T22:42:16.223Z,6.55
2018-01-15T22:44:43.692Z,7.12
2018-01-15T22:47:11.931Z,7.03
2018-01-15T22:49:39.394Z,6.40
2018-01-15T22:52:06.851Z,6.20
2018-01-15T22:54:34.315Z,6.15
2018-01-15T22:57:01.774Z,6.25
2018-01-15T22:59:29.242Z,5.90
2018-01-15T23:01:56.699Z,4.25
2018-01-15T23:04:24.151Z,4.93
2018-01-15T23:06:51.612Z,3.53
2018-01-15T23:09:19.066Z,3.20
2018-01-15T23:11:46.539Z,3.80
2018-01-15T23:14:13.988Z,3.55
2018-01-15T23:16:41.452Z,4.47
2018-01-15T23:19:08.912Z,4.47
2018-01-15T23:21:36.398Z,3.85
2018-01-15T23:24:03.887Z,2.87
2018-01-15T23:26:31.370Z,3.50
2018-01-15T23:28:58.821Z,2.97
2018-01-15T23:31:26.282Z,2.30
2018-01-15T23:33:53.742Z,2.45
2018-01-15T23:36:21.208Z,2.15
2018-01-15T23:38:48.665Z,1.70
2018-01-15T23:41:16.128Z,2.50
2018-01-15T23:43:43.674Z,1.65
2018-01-15T23:49:01.843Z,1.73
2018-01-15T23:51:29.304Z,1.35
2018-01-15T23:53:56.767Z,1.50
2018-01-15T23:56:24.994Z,1.75
2018-01-15T23:58:52.455Z,1.52
